createdAt,value
2023-02-26T00:02:11.177Z,76.64
2023-02-26T00:07:13.868Z,76.72
2023-02-26T00:12:16.922Z,76.85
2023-02-26T00:17:31.344Z,76.85
2023-02-26T00:22:34.284Z,77.05
2023-02-26T00:27:37.365Z,76.90
2023-02-26T00:32:40.610Z,77.03
2023-02-26T00:37:55.139Z,76.83
2023-02-26T00:42:58.162Z,77.14
2023-02-26T00:48:19.279Z,76.76
2023-02-26T00:54:14.902Z,76.51
2023-02-26T00:59:18.485Z,76.85
2023-02-26T01:04:23.457Z,76.97
2023-02-26T01:09:34.420Z,76.97
2023-02-26T01:14:39.544Z,77.00
2023-02-26T01:19:55.258Z,77.13
2023-02-26T01:25:08.183Z,77.23
2023-02-26T01:30:10.892Z,77.00
2023-02-26T01:35:40.881Z,77.35
2023-02-26T01:41:02.301Z,77.01
2023-02-26T01:46:25.504Z,76.96
2023-02-26T01:51:49.512Z,77.37
2023-02-26T01:57:09.956Z,77.79
2023-02-26T02:02:14.195Z,77.38
2023-02-26T02:07:19.024Z,76.98
2023-02-26T02:12:37.483Z,77.12
2023-02-26T02:17:56.855Z,76.76
2023-02-26T02:23:11.307Z,76.93
2023-02-26T02:28:36.964Z,76.81
2023-02-26T02:34:06.130Z,76.21
2023-02-26T02:39:23.867Z,76.21
2023-02-26T02:44:27.927Z,75.81
2023-02-26T02:50:05.841Z,75.28
2023-02-26T02:55:20.630Z,74.74
2023-02-26T03:00:24.582Z,74.76
2023-02-26T03:12:05.023Z,74.80
2023-02-26T03:17:41.840Z,74.45
2023-02-26T03:22:57.689Z,74.17
2023-02-26T03:28:21.551Z,73.54
2023-02-26T03:33:47.952Z,73.35
2023-02-26T03:39:02.045Z,72.95
2023-02-26T03:44:28.648Z,72.35
2023-02-26T03:49:35.243Z,71.89
2023-02-26T03:54:47.984Z,71.82
2023-02-26T04:00:10.996Z,71.12
2023-02-26T04:05:23.514Z,71.16
2023-02-26T04:10:33.821Z,70.77
2023-02-26T04:15:36.764Z,70.33
2023-02-26T04:20:40.075Z,69.77
2023-02-26T04:25:42.886Z,68.89
2023-02-26T04:30:47.133Z,69.10
2023-02-26T04:35:50.908Z,68.58
2023-02-26T04:40:53.914Z,68.25
2023-02-26T04:45:57.182Z,67.93
2023-02-26T04:50:59.967Z,68.28
2023-02-26T04:56:02.851Z,67.74
2023-02-26T05:01:06.199Z,67.66
2023-02-26T05:06:09.066Z,67.39
2023-02-26T05:11:12.864Z,67.11
2023-02-26T05:16:15.625Z,66.90
2023-02-26T05:21:18.711Z,66.24
2023-02-26T05:26:21.584Z,65.67
2023-02-26T05:31:24.341Z,65.53
2023-02-26T05:36:27.744Z,65.28
2023-02-26T05:41:30.613Z,64.92
2023-02-26T05:46:33.372Z,64.81
2023-02-26T05:51:36.186Z,63.96
2023-02-26T05:56:38.874Z,63.91
2023-02-26T06:01:43.081Z,63.86
2023-02-26T06:06:45.836Z,63.25
2023-02-26T06:11:48.583Z,62.89
2023-02-26T06:16:51.213Z,62.56
2023-02-26T06:21:54.137Z,62.20
2023-02-26T06:26:56.968Z,61.75
2023-02-26T06:32:00.076Z,61.13
2023-02-26T06:37:03.077Z,61.66
2023-02-26T06:42:06.052Z,61.34
2023-02-26T06:47:08.796Z,61.17
2023-02-26T06:52:11.548Z,61.05
2023-02-26T06:57:17.250Z,61.12
2023-02-26T07:02:22.576Z,60.53
2023-02-26T07:07:25.322Z,60.64
2023-02-26T07:12:31.143Z,60.24
2023-02-26T07:17:34.570Z,59.83
2023-02-26T07:22:38.421Z,59.84
2023-02-26T07:27:43.722Z,59.37
2023-02-26T07:32:46.827Z,59.01
2023-02-26T07:37:49.502Z,58.29
2023-02-26T07:42:52.306Z,58.53
2023-02-26T07:47:55.258Z,58.92
2023-02-26T07:52:57.991Z,58.59
2023-02-26T07:58:00.920Z,58.85
2023-02-26T08:03:03.704Z,58.57
2023-02-26T08:08:06.489Z,58.46
2023-02-26T08:13:09.306Z,58.45
2023-02-26T08:18:12.503Z,58.40
2023-02-26T08:23:15.209Z,58.33
2023-02-26T08:28:17.994Z,58.00
2023-02-26T08:33:20.834Z,57.52
2023-02-26T08:38:23.574Z,57.28
2023-02-26T08:43:26.463Z,56.86
2023-02-26T08:48:29.320Z,55.97
2023-02-26T08:53:32.354Z,55.36
2023-02-26T08:58:35.170Z,55.78
2023-02-26T09:03:37.909Z,55.64
2023-02-26T09:08:40.583Z,56.18
2023-02-26T09:13:43.367Z,55.93
2023-02-26T09:18:46.130Z,56.12
2023-02-26T09:23:48.977Z,56.42
2023-02-26T09:28:51.901Z,56.43
2023-02-26T09:33:54.700Z,56.03
2023-02-26T09:38:57.369Z,56.26
2023-02-26T09:44:25.152Z,56.55
2023-02-26T09:49:31.694Z,56.31
2023-02-26T09:54:42.290Z,56.49
2023-02-26T09:59:45.057Z,55.72
2023-02-26T10:05:12.578Z,56.16
2023-02-26T10:10:40.028Z,55.91
2023-02-26T10:15:43.962Z,56.10
2023-02-26T10:21:12.964Z,56.21
2023-02-26T10:26:45.102Z,56.60
2023-02-26T10:32:20.149Z,57.15
2023-02-26T10:37:44.725Z,57.58
2023-02-26T10:43:28.318Z,57.45
2023-02-26T10:48:38.336Z,57.11
2023-02-26T10:53:43.731Z,57.01
2023-02-26T10:58:46.833Z,57.23
2023-02-26T11:03:54.691Z,57.36
2023-02-26T11:08:59.337Z,57.49
2023-02-26T11:14:02.699Z,58.34
2023-02-26T11:19:06.290Z,58.29
2023-02-26T11:24:24.550Z,58.54
2023-02-26T11:29:27.298Z,58.76
2023-02-26T11:34:30.601Z,59.09
2023-02-26T11:39:39.530Z,59.07
2023-02-26T11:44:46.482Z,59.24
2023-02-26T11:49:56.064Z,59.83
2023-02-26T11:55:04.230Z,60.45
2023-02-26T12:00:19.623Z,61.09
2023-02-26T12:05:22.983Z,61.65
2023-02-26T12:10:55.336Z,61.61
2023-02-26T12:16:04.767Z,62.44
2023-02-26T12:21:13.492Z,62.42
2023-02-26T12:26:35.849Z,63.31
2023-02-26T12:32:00.198Z,63.68
2023-02-26T12:37:16.384Z,63.81
2023-02-26T12:42:44.287Z,64.54
2023-02-26T12:48:11.173Z,64.66
2023-02-26T12:53:35.682Z,65.53
2023-02-26T12:59:01.225Z,66.74
2023-02-26T13:04:34.924Z,67.60
2023-02-26T13:09:56.457Z,68.17
2023-02-26T13:15:26.605Z,69.18
2023-02-26T13:20:29.854Z,69.59
2023-02-26T13:25:39.164Z,70.00
2023-02-26T13:30:48.579Z,70.60
2023-02-26T13:35:53.363Z,71.42
2023-02-26T13:41:13.197Z,71.72
2023-02-26T13:46:18.964Z,72.37
2023-02-26T13:51:41.060Z,73.24
2023-02-26T13:57:08.218Z,73.89
2023-02-26T14:02:19.798Z,74.21
2023-02-26T14:07:54.109Z,74.25
2023-02-26T14:13:11.510Z,75.14
2023-02-26T14:18:27.829Z,75.67
2023-02-26T14:23:37.838Z,75.59
2023-02-26T14:28:49.748Z,75.93
2023-02-26T14:34:14.226Z,76.32
2023-02-26T14:39:36.452Z,76.81
2023-02-26T14:44:43.685Z,76.64
2023-02-26T14:49:59.721Z,77.22
2023-02-26T14:55:24.006Z,77.64
2023-02-26T15:00:45.852Z,77.91
2023-02-26T15:06:20.012Z,78.24
2023-02-26T15:11:51.359Z,78.68
2023-02-26T15:17:15.730Z,78.26
2023-02-26T15:22:54.642Z,78.38
2023-02-26T15:27:59.462Z,78.30
2023-02-26T15:33:05.840Z,78.78
2023-02-26T15:38:09.895Z,78.54
2023-02-26T15:43:26.232Z,78.81
2023-02-26T15:48:42.665Z,78.48
2023-02-26T15:53:48.449Z,78.26
2023-02-26T15:58:58.464Z,77.80
2023-02-26T16:04:02.958Z,77.25
2023-02-26T16:09:07.737Z,77.17
2023-02-26T16:14:22.386Z,77.42
2023-02-26T16:19:39.690Z,77.10
2023-02-26T16:24:42.945Z,76.82
2023-02-26T16:29:52.135Z,76.59
2023-02-26T16:34:57.774Z,76.68
2023-02-26T16:40:20.610Z,76.85
2023-02-26T16:45:35.358Z,76.37
2023-02-26T16:50:38.718Z,76.12
2023-02-26T16:55:42.343Z,76.06
2023-02-26T17:00:46.750Z,75.96
2023-02-26T17:06:03.026Z,75.84
2023-02-26T17:11:10.652Z,76.24
2023-02-26T17:16:14.419Z,75.99
2023-02-26T17:21:17.940Z,76.03
2023-02-26T17:26:20.906Z,76.32
2023-02-26T17:31:23.699Z,76.22
2023-02-26T17:36:27.058Z,76.36
2023-02-26T17:41:30.910Z,75.94
2023-02-26T17:46:33.567Z,75.87
2023-02-26T17:51:36.398Z,76.03
2023-02-26T17:56:39.201Z,75.78
2023-02-26T18:01:42.519Z,75.98
2023-02-26T18:06:45.664Z,76.23
2023-02-26T18:11:48.332Z,76.37
2023-02-26T18:16:51.275Z,76.43
2023-02-26T18:21:54.069Z,76.70
2023-02-26T18:26:56.918Z,76.26
2023-02-26T18:32:00.820Z,76.65
2023-02-26T18:37:04.842Z,76.57
2023-02-26T18:42:08.118Z,76.72
2023-02-26T18:47:11.806Z,77.30
2023-02-26T18:52:14.630Z,77.31
2023-02-26T18:57:17.653Z,77.19
2023-02-26T19:02:40.915Z,77.83
2023-02-26T19:07:43.768Z,77.96
2023-02-26T19:12:46.713Z,78.00
2023-02-26T19:17:49.504Z,78.35
2023-02-26T19:22:52.155Z,78.36
2023-02-26T19:27:56.105Z,77.97
2023-02-26T19:32:59.033Z,78.63
2023-02-26T19:38:01.882Z,78.46
2023-02-26T19:43:04.626Z,78.63
2023-02-26T19:48:07.331Z,78.38
2023-02-26T19:53:10.152Z,78.61
2023-02-26T19:58:14.487Z,79.13
2023-02-26T20:03:17.354Z,78.98
2023-02-26T20:08:22.017Z,79.31
2023-02-26T20:13:30.103Z,78.98
2023-02-26T20:18:33.422Z,79.56
2023-02-26T20:23:38.015Z,79.61
2023-02-26T20:28:41.670Z,79.43
2023-02-26T20:33:44.390Z,79.53
2023-02-26T20:38:47.204Z,79.80
2023-02-26T20:43:49.945Z,79.49
2023-02-26T20:48:52.614Z,79.87
2023-02-26T20:53:55.430Z,79.25
2023-02-26T20:58:58.164Z,79.77
2023-02-26T21:04:01.262Z,79.65
2023-02-26T21:09:05.611Z,79.42
2023-02-26T21:14:10.092Z,80.07
2023-02-26T21:19:12.931Z,79.94
2023-02-26T21:24:15.635Z,80.36
2023-02-26T21:29:18.743Z,80.11
2023-02-26T21:34:33.400Z,80.19
2023-02-26T21:39:38.474Z,80.30
2023-02-26T21:44:41.373Z,79.85
2023-02-26T21:49:44.574Z,80.29
2023-02-26T21:54:47.402Z,80.12
2023-02-26T21:59:50.140Z,80.52
2023-02-26T22:04:52.825Z,80.53
2023-02-26T22:09:55.528Z,80.55
2023-02-26T22:14:58.261Z,80.42
2023-02-26T22:20:00.971Z,80.53
2023-02-26T22:25:06.292Z,80.64
2023-02-26T22:30:09.899Z,80.76
2023-02-26T22:35:14.266Z,80.98
2023-02-26T22:40:17.064Z,81.28
2023-02-26T22:45:20.148Z,81.18
2023-02-26T22:50:22.853Z,81.56
2023-02-26T22:55:25.686Z,81.35
2023-02-26T23:00:29.024Z,81.72
2023-02-26T23:05:31.858Z,81.78
2023-02-26T23:10:34.579Z,81.86
2023-02-26T23:15:37.859Z,81.98
2023-02-26T23:20:40.632Z,82.15
2023-02-26T23:25:44.082Z,82.14
2023-02-26T23:30:46.980Z,82.35
2023-02-26T23:35:50.063Z,82.07
2023-02-26T23:40:52.878Z,82.48
2023-02-26T23:45:55.644Z,82.55
2023-02-26T23:50:58.368Z,83.11
2023-02-26T23:56:01.537Z,83.31
